createdAt,value
2023-02-15T00:00:42.809Z,61.50
2023-02-15T00:03:12.807Z,61.70
2023-02-15T00:05:41.098Z,61.80
2023-02-15T00:08:09.867Z,61.60
2023-02-15T00:10:38.152Z,61.60
2023-02-15T00:13:06.482Z,61.60
2023-02-15T00:15:34.829Z,61.60
2023-02-15T00:18:03.164Z,61.60
2023-02-15T00:20:33.002Z,61.60
2023-02-15T00:23:01.797Z,61.60
2023-02-15T00:25:30.071Z,61.80
2023-02-15T00:27:58.498Z,61.70
2023-02-15T00:30:28.065Z,61.70
2023-02-15T00:32:56.924Z,61.70
2023-02-15T00:35:25.202Z,61.60
2023-02-15T00:37:54.985Z,61.70
2023-02-15T00:40:23.291Z,61.70
2023-02-15T00:42:51.678Z,62.10
2023-02-15T00:45:20.173Z,61.70
2023-02-15T00:47:48.477Z,61.60
2023-02-15T00:50:17.645Z,61.60
2023-02-15T00:52:48.200Z,61.60
2023-02-15T00:55:18.140Z,61.60
2023-02-15T00:57:46.490Z,61.70
2023-02-15T01:00:16.316Z,61.90
2023-02-15T01:02:44.691Z,61.70
2023-02-15T01:05:13.517Z,61.60
2023-02-15T01:07:41.942Z,61.70
2023-02-15T01:10:10.969Z,61.70
2023-02-15T01:12:40.622Z,61.80
2023-02-15T01:15:09.749Z,62.30
2023-02-15T01:17:39.105Z,61.80
2023-02-15T01:20:09.160Z,61.80
2023-02-15T01:22:37.536Z,61.90
2023-02-15T01:25:07.155Z,61.90
2023-02-15T01:27:35.517Z,61.80
2023-02-15T01:30:06.384Z,62.00
2023-02-15T01:32:34.836Z,61.90
2023-02-15T01:35:04.230Z,61.80
2023-02-15T01:37:33.028Z,61.80
2023-02-15T01:40:02.225Z,61.80
2023-02-15T01:42:31.961Z,61.80
2023-02-15T01:45:04.682Z,61.90
2023-02-15T01:47:39.498Z,61.90
2023-02-15T01:50:15.643Z,61.90
2023-02-15T01:52:52.160Z,61.90
2023-02-15T01:55:22.047Z,61.70
2023-02-15T01:57:51.578Z,61.60
2023-02-15T02:00:22.659Z,61.60
2023-02-15T02:02:56.105Z,61.60
2023-02-15T02:05:27.216Z,61.60
2023-02-15T02:08:00.229Z,61.60
2023-02-15T02:10:28.917Z,61.70
2023-02-15T02:13:05.142Z,61.70
2023-02-15T02:15:45.552Z,61.80
2023-02-15T02:18:29.182Z,61.70
2023-02-15T02:21:40.445Z,61.80
2023-02-15T02:24:40.574Z,61.90
2023-02-15T02:27:28.437Z,61.90
2023-02-15T02:30:39.449Z,62.00
2023-02-15T02:33:23.112Z,62.00
2023-02-15T02:36:00.269Z,61.90
2023-02-15T02:38:38.134Z,61.90
2023-02-15T02:41:16.055Z,61.90
2023-02-15T02:43:53.234Z,62.00
2023-02-15T02:46:30.236Z,62.00
2023-02-15T02:49:00.070Z,62.10
2023-02-15T02:51:29.505Z,61.90
2023-02-15T02:54:03.197Z,61.90
2023-02-15T02:56:36.447Z,61.90
2023-02-15T02:59:11.893Z,61.90
2023-02-15T03:01:44.279Z,61.90
2023-02-15T03:04:19.625Z,61.90
2023-02-15T03:06:53.102Z,61.90
2023-02-15T03:09:35.542Z,61.80
2023-02-15T03:12:05.307Z,61.80
2023-02-15T03:14:36.481Z,61.80
2023-02-15T03:17:08.251Z,61.80
2023-02-15T03:19:39.858Z,61.80
2023-02-15T03:22:15.528Z,61.80
2023-02-15T03:24:48.988Z,62.60
2023-02-15T03:27:22.129Z,61.90
2023-02-15T03:29:57.715Z,62.00
2023-02-15T03:32:30.049Z,62.10
2023-02-15T03:35:00.318Z,62.00
2023-02-15T03:37:34.607Z,62.00
2023-02-15T03:40:24.112Z,62.10
2023-02-15T03:43:00.305Z,62.10
2023-02-15T03:45:33.353Z,62.20
2023-02-15T03:48:03.816Z,62.20
2023-02-15T03:50:55.016Z,62.20
2023-02-15T03:53:25.764Z,62.10
2023-02-15T03:55:57.037Z,62.10
2023-02-15T03:58:42.949Z,62.10
2023-02-15T04:01:37.651Z,62.00
2023-02-15T04:04:13.565Z,62.10
2023-02-15T04:06:43.232Z,62.10
2023-02-15T04:09:29.182Z,62.10
2023-02-15T04:11:57.498Z,62.00
2023-02-15T04:14:43.583Z,62.00
2023-02-15T04:17:12.152Z,62.00
2023-02-15T04:19:57.956Z,62.10
2023-02-15T04:22:45.112Z,62.10
2023-02-15T04:25:13.626Z,62.00
2023-02-15T04:27:44.827Z,62.00
2023-02-15T04:30:16.165Z,62.10
2023-02-15T04:32:44.708Z,62.10
2023-02-15T04:35:13.453Z,62.20
2023-02-15T04:37:44.129Z,62.20
2023-02-15T04:40:17.959Z,62.20
2023-02-15T04:42:50.065Z,62.10
2023-02-15T04:45:19.013Z,62.10
2023-02-15T04:47:47.327Z,62.10
2023-02-15T04:50:15.671Z,62.10
2023-02-15T04:52:45.402Z,62.20
2023-02-15T04:55:13.696Z,62.50
2023-02-15T04:57:42.033Z,62.30
2023-02-15T05:00:11.649Z,62.30
2023-02-15T05:02:39.953Z,62.30
2023-02-15T05:05:10.480Z,62.20
2023-02-15T05:07:38.858Z,62.20
2023-02-15T05:10:10.271Z,62.20
2023-02-15T05:12:38.839Z,62.30
2023-02-15T05:15:07.728Z,62.20
2023-02-15T05:17:36.054Z,62.20
2023-02-15T05:20:05.199Z,62.10
2023-02-15T05:22:33.487Z,62.20
2023-02-15T05:25:19.446Z,62.10
2023-02-15T05:28:06.841Z,62.20
2023-02-15T05:30:35.359Z,62.20
2023-02-15T05:33:03.869Z,62.10
2023-02-15T05:35:32.210Z,62.10
2023-02-15T05:38:00.521Z,62.00
2023-02-15T05:40:29.021Z,62.00
2023-02-15T05:42:58.987Z,62.00
2023-02-15T05:45:27.606Z,62.00
2023-02-15T05:47:56.097Z,62.00
2023-02-15T05:50:24.380Z,61.90
2023-02-15T05:52:52.829Z,61.80
2023-02-15T05:55:21.710Z,62.00
2023-02-15T05:57:50.989Z,62.00
2023-02-15T06:00:21.218Z,62.10
2023-02-15T06:02:49.725Z,62.10
2023-02-15T06:05:18.290Z,62.20
2023-02-15T06:07:47.004Z,62.20
2023-02-15T06:10:15.414Z,62.20
2023-02-15T06:12:43.761Z,62.20
2023-02-15T06:15:12.060Z,62.20
2023-02-15T06:17:43.390Z,62.20
2023-02-15T06:20:13.263Z,62.30
2023-02-15T06:22:41.649Z,62.30
2023-02-15T06:25:11.102Z,62.20
2023-02-15T06:27:39.847Z,62.20
2023-02-15T06:30:10.435Z,62.10
2023-02-15T06:32:38.897Z,62.20
2023-02-15T06:35:09.341Z,62.20
2023-02-15T06:37:39.249Z,62.20
2023-02-15T06:40:09.690Z,62.20
2023-02-15T06:42:37.975Z,62.30
2023-02-15T06:45:08.476Z,62.50
2023-02-15T06:47:36.999Z,62.30
2023-02-15T06:50:05.938Z,62.30
2023-02-15T06:52:35.799Z,62.30
2023-02-15T06:55:04.261Z,62.40
2023-02-15T06:57:33.402Z,62.70
2023-02-15T07:00:02.312Z,62.70
2023-02-15T07:02:30.687Z,62.80
2023-02-15T07:04:59.063Z,62.90
2023-02-15T07:07:27.534Z,62.70
2023-02-15T07:09:57.189Z,62.70
2023-02-15T07:12:43.657Z,62.60
2023-02-15T07:15:14.980Z,62.60
2023-02-15T07:17:43.643Z,62.60
2023-02-15T07:20:15.778Z,62.60
2023-02-15T07:22:44.124Z,62.60
2023-02-15T07:25:14.928Z,62.50
2023-02-15T07:27:44.248Z,62.50
2023-02-15T07:30:16.622Z,62.50
2023-02-15T07:32:59.160Z,62.60
2023-02-15T07:35:27.814Z,62.50
2023-02-15T07:37:56.919Z,62.60
2023-02-15T07:40:26.668Z,62.60
2023-02-15T07:42:55.874Z,62.60
2023-02-15T07:45:24.658Z,62.60
2023-02-15T07:47:53.253Z,62.70
2023-02-15T07:50:21.649Z,62.70
2023-02-15T07:52:50.007Z,62.70
2023-02-15T07:55:19.545Z,62.80
2023-02-15T07:57:51.922Z,62.70
2023-02-15T08:00:25.779Z,62.90
2023-02-15T08:03:10.946Z,62.90
2023-02-15T08:05:40.195Z,62.90
2023-02-15T08:08:08.936Z,62.90
2023-02-15T08:10:55.728Z,63.00
2023-02-15T08:13:25.521Z,63.10
2023-02-15T08:15:53.810Z,63.00
2023-02-15T08:18:22.092Z,63.10
2023-02-15T08:20:51.902Z,63.20
2023-02-15T08:23:20.434Z,63.20
2023-02-15T08:25:48.748Z,63.20
2023-02-15T08:28:17.124Z,63.20
2023-02-15T08:30:46.795Z,63.40
2023-02-15T08:33:15.133Z,63.40
2023-02-15T08:35:43.482Z,63.40
2023-02-15T08:38:11.783Z,63.60
2023-02-15T08:40:40.122Z,63.60
2023-02-15T08:43:08.463Z,63.70
2023-02-15T08:45:36.813Z,63.70
2023-02-15T08:48:06.922Z,63.80
2023-02-15T08:50:35.328Z,63.70
2023-02-15T08:53:03.598Z,63.90
2023-02-15T08:55:31.897Z,63.90
2023-02-15T08:58:00.259Z,63.90
2023-02-15T09:00:29.372Z,63.90
2023-02-15T09:02:57.695Z,63.90
2023-02-15T09:05:27.483Z,63.90
2023-02-15T09:07:55.772Z,63.90
2023-02-15T09:10:24.084Z,63.90
2023-02-15T09:12:52.463Z,63.90
2023-02-15T09:15:20.748Z,64.00
2023-02-15T09:17:49.020Z,64.00
2023-02-15T09:20:17.550Z,64.00
2023-02-15T09:22:47.270Z,64.10
2023-02-15T09:25:15.671Z,64.10
2023-02-15T09:27:44.305Z,64.20
2023-02-15T09:30:15.032Z,64.30
2023-02-15T09:32:43.410Z,64.50
2023-02-15T09:35:11.718Z,64.50
2023-02-15T09:37:40.021Z,64.70
2023-02-15T09:40:10.790Z,64.70
2023-02-15T09:43:07.526Z,64.80
2023-02-15T09:46:04.661Z,64.80
2023-02-15T09:48:42.602Z,65.00
2023-02-15T09:51:50.030Z,64.90
2023-02-15T09:54:37.752Z,64.80
2023-02-15T09:57:17.751Z,64.60
2023-02-15T09:59:58.423Z,64.40
2023-02-15T10:02:46.373Z,64.30
2023-02-15T10:05:29.290Z,64.10
2023-02-15T10:08:43.049Z,64.00
2023-02-15T10:11:36.580Z,63.80
2023-02-15T10:14:28.757Z,63.60
2023-02-15T10:17:14.006Z,63.50
2023-02-15T10:19:51.949Z,63.50
2023-02-15T10:22:37.581Z,63.50
2023-02-15T10:25:34.047Z,63.70
2023-02-15T10:28:07.691Z,63.50
2023-02-15T10:30:49.255Z,63.70
2023-02-15T10:33:38.062Z,63.60
2023-02-15T10:36:22.167Z,63.60
2023-02-15T10:39:00.440Z,63.60
2023-02-15T10:41:41.593Z,63.40
2023-02-15T10:44:33.402Z,63.40
2023-02-15T10:47:30.276Z,63.40
2023-02-15T10:50:22.162Z,63.40
2023-02-15T10:53:06.121Z,63.20
2023-02-15T10:55:49.375Z,63.30
2023-02-15T10:58:35.011Z,63.20
2023-02-15T11:01:13.267Z,63.30
2023-02-15T11:04:20.606Z,63.30
2023-02-15T11:06:53.397Z,63.20
2023-02-15T11:09:25.017Z,63.20
2023-02-15T11:11:56.632Z,63.00
2023-02-15T11:14:40.097Z,62.90
2023-02-15T11:17:14.480Z,62.70
2023-02-15T11:19:56.451Z,62.80
2023-02-15T11:22:25.408Z,62.60
2023-02-15T11:24:55.497Z,62.60
2023-02-15T11:27:28.156Z,62.40
2023-02-15T11:30:03.002Z,62.30
2023-02-15T11:32:35.026Z,62.20
2023-02-15T11:35:12.808Z,62.20
2023-02-15T11:37:47.951Z,62.00
2023-02-15T11:40:23.303Z,61.80
2023-02-15T11:42:54.321Z,61.60
2023-02-15T11:45:29.277Z,61.40
2023-02-15T11:47:58.748Z,60.90
2023-02-15T11:50:31.758Z,60.80
2023-02-15T11:53:04.489Z,60.40
2023-02-15T11:55:35.864Z,60.10
2023-02-15T11:58:16.095Z,59.90
2023-02-15T12:00:47.702Z,59.40
2023-02-15T12:03:23.554Z,59.30
2023-02-15T12:05:59.988Z,59.00
2023-02-15T12:08:40.248Z,58.40
2023-02-15T12:11:13.959Z,58.40
2023-02-15T12:13:58.270Z,58.70
2023-02-15T12:16:27.760Z,57.50
2023-02-15T12:18:58.854Z,58.10
2023-02-15T12:21:32.346Z,57.70
2023-02-15T12:24:11.225Z,56.90
2023-02-15T12:26:40.063Z,56.90
2023-02-15T12:29:17.315Z,57.20
2023-02-15T12:31:49.882Z,56.90
2023-02-15T12:34:24.919Z,56.70
2023-02-15T12:36:59.066Z,56.10
2023-02-15T12:39:29.536Z,55.90
2023-02-15T12:42:04.800Z,55.70
2023-02-15T12:44:35.951Z,55.30
2023-02-15T12:47:07.047Z,55.00
2023-02-15T12:49:36.907Z,54.50
2023-02-15T12:52:17.938Z,54.40
2023-02-15T12:54:47.273Z,54.30
2023-02-15T12:57:29.913Z,54.00
2023-02-15T13:00:01.545Z,53.30
2023-02-15T13:02:37.410Z,53.80
2023-02-15T13:05:21.333Z,53.50
2023-02-15T13:07:56.193Z,52.60
2023-02-15T13:10:29.432Z,53.50
2023-02-15T13:12:59.002Z,53.60
2023-02-15T13:15:33.761Z,53.50
2023-02-15T13:18:04.179Z,53.40
2023-02-15T13:20:33.474Z,53.40
2023-02-15T13:23:08.174Z,53.10
2023-02-15T13:25:51.223Z,53.00
2023-02-15T13:28:22.835Z,53.10
2023-02-15T13:30:53.263Z,53.10
2023-02-15T13:33:30.798Z,52.90
2023-02-15T13:36:08.971Z,52.90
2023-02-15T13:38:52.900Z,52.70
2023-02-15T13:41:28.590Z,52.50
2023-02-15T13:44:08.339Z,52.90
2023-02-15T13:46:54.035Z,53.30
2023-02-15T13:49:42.111Z,52.30
2023-02-15T13:52:22.004Z,52.30
2023-02-15T13:55:35.968Z,52.50
2023-02-15T13:58:20.176Z,52.00
2023-02-15T14:01:01.531Z,52.50
2023-02-15T14:04:05.324Z,52.50
2023-02-15T14:06:49.780Z,51.90
2023-02-15T14:09:33.403Z,52.60
2023-02-15T14:12:19.173Z,52.20
2023-02-15T14:15:10.682Z,52.20
2023-02-15T14:17:51.661Z,52.00
2023-02-15T14:20:27.130Z,52.60
2023-02-15T14:23:11.578Z,52.70
2023-02-15T14:25:47.320Z,52.40
2023-02-15T14:28:22.950Z,52.60
2023-02-15T14:30:53.795Z,52.60
2023-02-15T14:33:35.867Z,52.70
2023-02-15T14:36:08.121Z,52.40
2023-02-15T14:38:59.116Z,52.80
2023-02-15T14:41:36.283Z,52.50
2023-02-15T14:44:15.437Z,52.60
2023-02-15T14:46:52.130Z,52.50
2023-02-15T14:49:25.318Z,52.80
2023-02-15T14:52:03.079Z,52.90
2023-02-15T14:55:11.195Z,52.80
2023-02-15T14:57:39.611Z,52.40
2023-02-15T15:00:40.044Z,53.00
2023-02-15T15:03:23.959Z,52.70
2023-02-15T15:05:56.342Z,52.70
2023-02-15T15:08:31.603Z,53.00
2023-02-15T15:11:43.808Z,53.00
2023-02-15T15:14:40.009Z,52.50
2023-02-15T15:17:12.981Z,53.10
2023-02-15T15:20:15.065Z,53.20
2023-02-15T15:22:45.252Z,52.60
2023-02-15T15:25:42.510Z,53.10
2023-02-15T15:28:55.267Z,53.20
2023-02-15T15:31:33.454Z,53.20
2023-02-15T15:35:02.122Z,53.10
2023-02-15T15:38:13.082Z,52.70
2023-02-15T15:41:19.354Z,52.70
2023-02-15T15:44:43.078Z,52.80
2023-02-15T15:47:37.461Z,52.80
2023-02-15T15:50:15.390Z,53.10
2023-02-15T15:52:50.624Z,53.00
2023-02-15T15:55:24.035Z,53.10
2023-02-15T15:57:55.886Z,53.70
2023-02-15T16:00:46.534Z,53.10
2023-02-15T16:03:18.012Z,52.80
2023-02-15T16:05:46.421Z,53.10
2023-02-15T16:08:15.440Z,53.00
2023-02-15T16:10:43.939Z,53.00
2023-02-15T16:13:16.854Z,53.10
2023-02-15T16:15:50.754Z,52.90
2023-02-15T16:18:21.222Z,52.80
2023-02-15T16:20:55.137Z,52.80
2023-02-15T16:24:16.110Z,52.80
2023-02-15T16:27:13.077Z,52.60
2023-02-15T16:29:41.516Z,52.80
2023-02-15T16:32:21.968Z,53.10
2023-02-15T16:34:59.668Z,53.20
2023-02-15T16:37:30.702Z,53.20
2023-02-15T16:39:59.158Z,53.30
2023-02-15T16:42:29.125Z,53.30
2023-02-15T16:45:03.832Z,53.40
2023-02-15T16:47:41.076Z,53.50
2023-02-15T16:50:21.293Z,53.50
2023-02-15T16:52:49.966Z,53.40
2023-02-15T16:55:25.577Z,53.60
2023-02-15T16:57:59.983Z,53.60
2023-02-15T17:00:32.921Z,53.70
2023-02-15T17:03:06.488Z,53.70
2023-02-15T17:05:42.815Z,53.70
2023-02-15T17:08:19.597Z,53.80
2023-02-15T17:11:12.833Z,53.70
2023-02-15T17:13:44.043Z,53.60
2023-02-15T17:16:30.398Z,54.40
2023-02-15T17:19:01.495Z,53.80
2023-02-15T17:21:35.653Z,53.90
2023-02-15T17:24:06.201Z,54.10
2023-02-15T17:26:37.636Z,54.10
2023-02-15T17:29:21.425Z,54.10
2023-02-15T17:31:52.835Z,54.00
2023-02-15T17:34:46.220Z,54.10
2023-02-15T17:37:26.414Z,54.10
2023-02-15T17:39:55.272Z,54.30
2023-02-15T17:42:23.704Z,54.40
2023-02-15T17:44:52.216Z,54.50
2023-02-15T17:47:23.226Z,54.50
2023-02-15T17:49:53.576Z,54.60
2023-02-15T17:52:22.369Z,54.60
2023-02-15T17:55:07.589Z,54.60
2023-02-15T17:57:36.171Z,54.60
2023-02-15T18:00:23.160Z,54.70
2023-02-15T18:03:12.167Z,54.70
2023-02-15T18:05:59.711Z,54.70
2023-02-15T18:08:47.210Z,54.70
2023-02-15T18:11:33.007Z,54.80
2023-02-15T18:14:02.407Z,54.80
2023-02-15T18:16:35.531Z,54.90
2023-02-15T18:19:05.896Z,54.90
2023-02-15T18:21:35.827Z,55.00
2023-02-15T18:24:04.560Z,55.00
2023-02-15T18:26:33.058Z,55.00
2023-02-15T18:29:01.665Z,54.90
2023-02-15T18:31:30.279Z,54.90
2023-02-15T18:34:03.283Z,54.90
2023-02-15T18:36:37.118Z,55.00
2023-02-15T18:39:09.079Z,55.10
2023-02-15T18:41:37.583Z,55.10
2023-02-15T18:44:11.856Z,55.20
2023-02-15T18:46:40.306Z,55.10
2023-02-15T18:49:08.610Z,55.30
2023-02-15T18:51:40.306Z,55.10
2023-02-15T18:54:19.194Z,55.20
2023-02-15T18:56:55.068Z,55.20
2023-02-15T18:59:24.909Z,55.40
2023-02-15T19:01:54.121Z,55.60
2023-02-15T19:04:24.871Z,55.40
2023-02-15T19:06:56.158Z,55.60
2023-02-15T19:09:26.246Z,55.60
2023-02-15T19:11:56.713Z,55.60
2023-02-15T19:14:29.147Z,55.90
2023-02-15T19:16:58.388Z,55.80
2023-02-15T19:19:28.190Z,55.80
2023-02-15T19:21:58.034Z,55.80
2023-02-15T19:24:38.150Z,55.70
2023-02-15T19:27:08.060Z,55.90
2023-02-15T19:29:36.520Z,55.80
2023-02-15T19:32:05.090Z,55.70
2023-02-15T19:34:33.502Z,55.70
2023-02-15T19:37:03.303Z,55.80
2023-02-15T19:39:40.290Z,55.70
2023-02-15T19:42:15.452Z,55.80
2023-02-15T19:44:43.836Z,55.70
2023-02-15T19:47:15.272Z,55.70
2023-02-15T19:49:44.627Z,55.90
2023-02-15T19:52:21.019Z,55.80
2023-02-15T19:54:50.631Z,55.80
2023-02-15T19:57:19.445Z,56.20
2023-02-15T19:59:48.046Z,55.70
2023-02-15T20:02:20.231Z,55.90
2023-02-15T20:04:48.953Z,56.00
2023-02-15T20:07:27.490Z,55.90
2023-02-15T20:09:56.081Z,55.80
2023-02-15T20:12:26.793Z,55.70
2023-02-15T20:14:55.274Z,55.90
2023-02-15T20:17:24.152Z,55.90
2023-02-15T20:19:52.717Z,55.90
2023-02-15T20:22:27.392Z,56.00
2023-02-15T20:24:57.251Z,56.10
2023-02-15T20:27:26.650Z,56.00
2023-02-15T20:29:56.882Z,55.90
2023-02-15T20:32:25.934Z,55.80
2023-02-15T20:34:54.497Z,55.90
2023-02-15T20:37:34.208Z,55.90
2023-02-15T20:40:02.869Z,56.00
2023-02-15T20:42:31.349Z,56.00
2023-02-15T20:45:00.138Z,56.00
2023-02-15T20:47:28.968Z,56.00
2023-02-15T20:49:58.259Z,55.90
2023-02-15T20:52:28.156Z,55.90
2023-02-15T20:54:56.690Z,56.10
2023-02-15T20:57:25.360Z,56.20
2023-02-15T20:59:54.029Z,56.00
2023-02-15T21:02:24.138Z,56.10
2023-02-15T21:04:53.308Z,56.50
2023-02-15T21:07:23.380Z,56.10
2023-02-15T21:09:54.448Z,56.30
2023-02-15T21:12:23.636Z,56.10
2023-02-15T21:14:52.445Z,56.10
2023-02-15T21:17:20.943Z,56.20
2023-02-15T21:19:49.522Z,56.10
2023-02-15T21:22:18.456Z,56.10
2023-02-15T21:24:55.116Z,56.10
2023-02-15T21:27:23.834Z,56.50
2023-02-15T21:29:52.891Z,56.10
2023-02-15T21:32:21.814Z,56.20
2023-02-15T21:34:50.489Z,56.10
2023-02-15T21:37:32.153Z,56.30
2023-02-15T21:40:02.781Z,56.30
2023-02-15T21:42:48.752Z,56.50
2023-02-15T21:45:37.239Z,56.60
2023-02-15T21:48:06.732Z,56.30
2023-02-15T21:50:57.799Z,56.40
2023-02-15T21:53:29.770Z,56.40
2023-02-15T21:56:02.995Z,56.50
2023-02-15T21:58:35.509Z,56.60
2023-02-15T22:01:05.294Z,56.70
2023-02-15T22:03:37.552Z,56.50
2023-02-15T22:06:07.826Z,56.60
2023-02-15T22:08:36.912Z,56.60
2023-02-15T22:11:13.567Z,56.60
2023-02-15T22:13:43.956Z,56.60
2023-02-15T22:16:18.151Z,56.80
2023-02-15T22:18:47.200Z,56.80
2023-02-15T22:21:16.862Z,57.10
2023-02-15T22:23:45.566Z,56.60
2023-02-15T22:26:21.963Z,56.60
2023-02-15T22:28:51.281Z,56.70
2023-02-15T22:31:23.154Z,56.80
2023-02-15T22:33:51.739Z,56.70
2023-02-15T22:36:26.238Z,56.70
2023-02-15T22:38:55.598Z,56.70
2023-02-15T22:41:29.582Z,56.70
2023-02-15T22:43:58.693Z,56.70
2023-02-15T22:46:27.896Z,57.00
2023-02-15T22:48:56.328Z,56.90
2023-02-15T22:51:26.161Z,56.80
2023-02-15T22:53:54.731Z,56.80
2023-02-15T22:56:28.168Z,56.70
2023-02-15T22:59:02.264Z,56.80
2023-02-15T23:01:35.036Z,56.90
2023-02-15T23:04:04.339Z,56.70
2023-02-15T23:06:34.283Z,56.60
2023-02-15T23:09:02.842Z,56.90
2023-02-15T23:11:32.773Z,56.60
2023-02-15T23:14:03.077Z,56.70
2023-02-15T23:16:32.155Z,57.00
2023-02-15T23:19:00.632Z,57.40
2023-02-15T23:21:31.719Z,57.10
2023-02-15T23:24:13.516Z,56.80
2023-02-15T23:26:43.323Z,56.90
2023-02-15T23:29:16.735Z,57.00
2023-02-15T23:31:47.859Z,56.90
2023-02-15T23:34:19.108Z,57.30
2023-02-15T23:36:48.385Z,57.20
2023-02-15T23:39:37.406Z,56.80
2023-02-15T23:42:11.032Z,56.80
2023-02-15T23:44:40.897Z,56.70
2023-02-15T23:47:43.163Z,56.90
2023-02-15T23:50:19.324Z,57.00
2023-02-15T23:52:48.160Z,57.10
2023-02-15T23:55:17.393Z,56.80
2023-02-15T23:57:48.208Z,56.80
